ケアンズ の空港の天気 - METARとTAF

ケアンズ国際空港 ( YBCS / CNS ) - オーストラリア クイーンズランド州ケアンズ
飛行場実況気象(Metar)
観測時間10/29 02:00 AEST (10/28 16:00 UTC)
風向・風速南 1m/s
視程10km以上
天気現象
なし
気温23℃
湿度89%
気圧1011hPa
METARYBCS 281600Z AUTO 17002KT 9999 // NCD 23/21 Q1011 NOSIG
過去の天気等 Google飛行場航空写真 Wunderground天気予報

過去48時間のMETAR

飛行場予報(TAF)
発表時間: 10/28 21:01 AEST (10/28 11:01 UTC)
予報対象時間: 28日22時 AEST ~ 29日22時 AEST
風向・風速南南東 4m/s
視程10km以上
少しの雲 雲底高度 760m
29日10時 AEST から
風向・風速北東 5m/s
視程10km以上
全天の4割程度の雲 雲底高度 910m
29日19時 AEST から
風向・風速南南東 4m/s
視程10km以上
全天の4割程度の雲 雲底高度 610m
TAF YBCS 281101Z 2812/2912 16007KT 9999 FEW025
FM290000 05010KT 9999 SCT030
FM290900 16007KT 9999 SCT020